createdAt,value
2019-05-30T00:00:05.724Z,7.83
2019-05-30T00:04:46.793Z,8.00
2019-05-30T00:09:43.107Z,9.37
2019-05-30T00:14:37.698Z,9.20
2019-05-30T00:19:34.013Z,9.77
2019-05-30T00:24:28.568Z,8.30
2019-05-30T00:29:23.134Z,8.10
2019-05-30T00:34:17.737Z,8.60
2019-05-30T00:39:12.341Z,8.03
2019-05-30T00:44:06.980Z,8.53
2019-05-30T00:49:02.458Z,10.20
2019-05-30T00:53:58.475Z,13.60
2019-05-30T00:58:53.204Z,20.93
2019-05-30T01:03:47.810Z,20.07
2019-05-30T01:08:42.411Z,14.33
2019-05-30T01:13:37.007Z,16.60
2019-05-30T01:18:31.642Z,19.83
2019-05-30T01:23:26.250Z,22.07
2019-05-30T01:28:20.849Z,19.70
2019-05-30T01:33:15.528Z,21.40
2019-05-30T01:38:10.137Z,22.33
2019-05-30T01:43:06.090Z,19.97
2019-05-30T01:48:02.785Z,20.77
2019-05-30T01:52:58.373Z,21.60
2019-05-30T01:57:53.197Z,22.30
2019-05-30T02:02:47.792Z,21.13
2019-05-30T02:07:42.522Z,20.93
2019-05-30T02:12:37.141Z,19.33
2019-05-30T02:17:31.739Z,19.33
2019-05-30T02:22:26.335Z,20.47
2019-05-30T02:27:20.932Z,19.93
2019-05-30T02:32:15.600Z,20.20
2019-05-30T02:37:12.613Z,19.77
2019-05-30T02:42:07.471Z,19.70
2019-05-30T02:47:03.527Z,20.40
2019-05-30T02:51:58.755Z,20.30
2019-05-30T02:56:53.352Z,20.50
2019-05-30T03:02:00.862Z,18.90
2019-05-30T03:06:44.593Z,18.43
2019-05-30T03:11:39.326Z,18.00
2019-05-30T03:16:33.928Z,19.33
2019-05-30T03:21:28.597Z,22.40
2019-05-30T03:26:23.341Z,22.47
2019-05-30T03:31:28.751Z,23.80
2019-05-30T03:36:28.269Z,22.23
2019-05-30T03:41:14.137Z,23.47
2019-05-30T03:46:14.995Z,22.80
2019-05-30T03:51:14.884Z,23.30
2019-05-30T03:56:17.295Z,21.93
2019-05-30T04:01:16.456Z,21.33
2019-05-30T04:06:21.476Z,19.10
2019-05-30T04:11:20.965Z,19.17
2019-05-30T04:16:15.974Z,18.63
2019-05-30T04:21:13.128Z,17.70
2019-05-30T04:26:07.505Z,19.70
2019-05-30T04:31:02.252Z,20.27
2019-05-30T04:35:56.891Z,19.67
2019-05-30T04:40:52.062Z,19.07
2019-05-30T04:45:46.642Z,19.53
2019-05-30T04:50:41.236Z,18.57
2019-05-30T04:55:35.854Z,18.67
2019-05-30T05:00:30.480Z,18.30
2019-05-30T05:05:27.072Z,18.27
2019-05-30T05:10:22.552Z,20.47
2019-05-30T05:15:18.682Z,21.23
2019-05-30T05:20:15.160Z,21.23
2019-05-30T05:25:09.995Z,22.43
2019-05-30T05:30:08.119Z,22.60
2019-05-30T05:35:02.714Z,20.73
2019-05-30T05:39:57.308Z,20.83
2019-05-30T05:44:51.893Z,20.40
2019-05-30T05:49:46.563Z,21.07
2019-05-30T05:54:41.143Z,21.23
2019-05-30T05:59:35.751Z,19.70
2019-05-30T06:04:30.331Z,20.00
2019-05-30T06:09:24.930Z,19.33
2019-05-30T06:14:19.915Z,17.33
2019-05-30T06:19:14.866Z,17.70
2019-05-30T06:24:09.527Z,17.63
2019-05-30T06:29:04.188Z,17.53
2019-05-30T06:33:58.902Z,16.27
2019-05-30T06:38:53.560Z,15.60
2019-05-30T06:43:48.173Z,14.07
2019-05-30T06:48:42.762Z,13.07
2019-05-30T06:53:37.376Z,12.90
2019-05-30T06:58:47.115Z,14.10
2019-05-30T07:03:28.605Z,13.83
2019-05-30T07:08:23.245Z,13.97
2019-05-30T07:13:17.984Z,13.20
2019-05-30T07:18:12.633Z,14.03
2019-05-30T07:23:07.241Z,13.67
2019-05-30T07:28:01.838Z,13.37
2019-05-30T07:32:56.446Z,13.30
2019-05-30T07:37:51.042Z,12.07
2019-05-30T07:42:45.711Z,12.30
2019-05-30T07:47:40.352Z,12.03
2019-05-30T07:52:34.954Z,12.73
2019-05-30T07:57:30.264Z,11.77
2019-05-30T08:02:25.175Z,11.00
2019-05-30T08:07:19.760Z,10.97
2019-05-30T08:12:14.360Z,11.80
2019-05-30T08:17:08.967Z,11.63
2019-05-30T08:22:03.644Z,10.60
2019-05-30T08:26:58.223Z,10.20
2019-05-30T08:31:52.820Z,10.20
2019-05-30T08:36:47.403Z,9.77
2019-05-30T08:41:42.007Z,9.80
2019-05-30T08:46:37.849Z,10.17
2019-05-30T08:51:32.561Z,10.23
2019-05-30T08:56:28.513Z,10.50
2019-05-30T09:01:23.624Z,9.53
2019-05-30T09:06:18.210Z,9.23
2019-05-30T09:11:12.800Z,8.83
2019-05-30T09:16:07.420Z,10.20
2019-05-30T09:21:02.027Z,10.93
2019-05-30T09:25:56.706Z,11.07
2019-05-30T09:30:51.290Z,11.13
2019-05-30T09:35:46.954Z,10.83
2019-05-30T09:40:42.163Z,11.70
2019-05-30T09:45:38.147Z,12.03
2019-05-30T09:50:32.749Z,12.07
2019-05-30T09:55:28.160Z,12.33
2019-05-30T10:00:25.906Z,10.90
2019-05-30T10:05:24.679Z,10.80
2019-05-30T10:10:22.396Z,9.68
2019-05-30T10:15:17.800Z,9.35
2019-05-30T10:20:14.088Z,8.55
2019-05-30T10:25:09.385Z,7.67
2019-05-30T10:30:07.297Z,6.25
2019-05-30T10:35:01.958Z,5.83
2019-05-30T10:39:58.728Z,7.03
2019-05-30T10:44:53.439Z,6.70
2019-05-30T10:49:49.786Z,7.08
2019-05-30T10:54:45.030Z,5.53
2019-05-30T10:59:41.162Z,5.70
2019-05-30T11:04:35.739Z,6.08
2019-05-30T11:09:34.922Z,4.20
2019-05-30T11:14:29.501Z,6.03
2019-05-30T11:19:24.092Z,4.83
2019-05-30T11:24:18.720Z,3.05
2019-05-30T11:29:13.346Z,2.62
2019-05-30T11:34:07.938Z,3.60
2019-05-30T11:39:03.320Z,3.95
2019-05-30T11:43:57.922Z,2.90
2019-05-30T11:48:53.626Z,2.80
2019-05-30T11:53:49.723Z,2.55
2019-05-30T11:58:44.687Z,3.02
2019-05-30T12:03:39.297Z,2.40
2019-05-30T12:08:33.871Z,2.20
2019-05-30T12:13:28.476Z,2.70
2019-05-30T12:18:23.048Z,2.37
2019-05-30T12:23:17.650Z,2.58
2019-05-30T12:28:12.299Z,1.80
2019-05-30T12:33:06.946Z,1.65
2019-05-30T12:38:05.993Z,1.72
2019-05-30T12:42:59.849Z,1.30
2019-05-30T12:47:55.134Z,2.10
2019-05-30T12:52:50.129Z,1.40
2019-05-30T12:57:44.785Z,1.30
2019-05-30T13:02:39.430Z,0.88
2019-05-30T13:07:34.038Z,0.65
2019-05-30T13:12:28.617Z,1.30
2019-05-30T13:17:23.214Z,0.90
2019-05-30T13:22:17.851Z,1.00
2019-05-30T13:27:12.485Z,1.02
2019-05-30T13:32:07.126Z,1.20
2019-05-30T13:37:02.919Z,0.98
2019-05-30T13:41:57.789Z,1.07
2019-05-30T13:46:52.387Z,1.15
2019-05-30T13:51:46.942Z,1.30
2019-05-30T13:56:41.541Z,0.90
2019-05-30T14:01:36.133Z,0.90
2019-05-30T14:06:30.753Z,1.17
2019-05-30T14:11:25.326Z,0.93
2019-05-30T14:16:19.918Z,0.62
2019-05-30T14:21:14.495Z,0.70
2019-05-30T14:26:09.511Z,0.72
2019-05-30T14:31:05.030Z,0.90
2019-05-30T14:35:59.752Z,0.95
2019-05-30T14:40:54.323Z,0.70
2019-05-30T14:45:48.923Z,1.02
2019-05-30T14:50:43.564Z,1.00
2019-05-30T14:55:38.158Z,0.68
2019-05-30T15:00:32.803Z,0.80
2019-05-30T15:05:27.412Z,0.70
2019-05-30T15:10:22.302Z,0.85
2019-05-30T15:15:18.868Z,0.90
2019-05-30T15:20:15.346Z,0.90
2019-05-30T15:25:12.197Z,0.70
2019-05-30T15:30:12.634Z,0.80
2019-05-30T15:35:10.834Z,1.27
2019-05-30T15:40:10.954Z,0.85
2019-05-30T15:45:09.770Z,0.60
2019-05-30T15:50:08.300Z,0.80
2019-05-30T15:55:03.489Z,0.80
2019-05-30T15:59:58.058Z,0.85
2019-05-30T16:04:52.657Z,0.80
2019-05-30T16:09:47.622Z,1.10
2019-05-30T16:14:42.425Z,1.10
2019-05-30T16:19:37.011Z,1.00
2019-05-30T16:24:31.610Z,0.75
2019-05-30T16:29:26.190Z,1.00
2019-05-30T16:34:20.794Z,0.82
2019-05-30T16:39:16.029Z,0.85
2019-05-30T16:44:10.952Z,0.98
2019-05-30T16:49:05.592Z,1.00
2019-05-30T16:54:00.425Z,0.75
2019-05-30T16:58:54.999Z,0.90
2019-05-30T17:03:49.604Z,0.80
2019-05-30T17:08:44.194Z,0.78
2019-05-30T17:13:38.771Z,0.80
2019-05-30T17:18:33.364Z,0.90
2019-05-30T17:23:27.947Z,0.98
2019-05-30T17:28:22.547Z,0.80
2019-05-30T17:33:18.299Z,0.78
2019-05-30T17:38:13.447Z,1.10
2019-05-30T17:43:08.099Z,0.93
2019-05-30T17:48:15.623Z,1.00
2019-05-30T17:52:59.031Z,1.05
2019-05-30T17:57:53.635Z,1.20
2019-05-30T18:02:48.214Z,1.20
2019-05-30T18:07:42.824Z,1.30
2019-05-30T18:12:37.471Z,0.90
2019-05-30T18:17:32.078Z,1.40
2019-05-30T18:22:27.579Z,1.40
2019-05-30T18:27:23.760Z,1.20
2019-05-30T18:32:18.804Z,1.30
2019-05-30T18:37:13.475Z,1.20
2019-05-30T18:42:08.072Z,1.53
2019-05-30T18:47:02.697Z,3.47
2019-05-30T18:51:57.267Z,2.53
2019-05-30T18:56:51.883Z,2.70
2019-05-30T19:01:46.460Z,2.73
2019-05-30T19:06:41.053Z,2.77
2019-05-30T19:11:36.990Z,2.63
2019-05-30T19:16:32.422Z,2.30
2019-05-30T19:21:27.934Z,3.87
2019-05-30T19:26:22.869Z,1.73
2019-05-30T19:31:17.459Z,1.93
2019-05-30T19:36:12.037Z,2.37
2019-05-30T19:41:06.640Z,3.20
2019-05-30T19:46:01.208Z,2.70
2019-05-30T19:50:55.804Z,2.23
2019-05-30T19:55:50.380Z,2.73
2019-05-30T20:00:57.859Z,2.30
2019-05-30T20:05:42.242Z,2.10
2019-05-30T20:10:37.246Z,2.03
2019-05-30T20:15:33.329Z,2.10
2019-05-30T20:20:27.977Z,2.40
2019-05-30T20:25:22.726Z,2.13
2019-05-30T20:30:18.309Z,2.43
2019-05-30T20:35:13.205Z,2.43
2019-05-30T20:40:10.005Z,2.40
2019-05-30T20:45:10.139Z,2.30
2019-05-30T20:50:07.958Z,2.00
2019-05-30T20:55:02.549Z,2.20
2019-05-30T20:59:57.125Z,2.40
2019-05-30T21:04:51.813Z,2.67
2019-05-30T21:09:47.217Z,2.53
2019-05-30T21:14:45.731Z,3.40
2019-05-30T21:19:40.407Z,3.30
2019-05-30T21:24:36.324Z,3.13
2019-05-30T21:29:30.985Z,3.20
2019-05-30T21:34:25.727Z,2.63
2019-05-30T21:39:20.741Z,2.23
2019-05-30T21:44:15.368Z,2.30
2019-05-30T21:49:09.936Z,2.13
2019-05-30T21:54:04.599Z,2.13
2019-05-30T21:58:59.218Z,2.00
2019-05-30T22:03:53.810Z,2.20
2019-05-30T22:08:49.301Z,2.40
2019-05-30T22:13:45.297Z,2.70
2019-05-30T22:18:40.217Z,2.50
2019-05-30T22:23:35.008Z,2.60
2019-05-30T22:28:29.594Z,2.80
2019-05-30T22:33:24.197Z,2.90
2019-05-30T22:38:18.773Z,3.10
2019-05-30T22:43:24.920Z,3.40
2019-05-30T22:48:09.742Z,3.00
2019-05-30T22:53:04.420Z,2.93
2019-05-30T22:57:58.989Z,2.53
2019-05-30T23:02:54.052Z,3.30
2019-05-30T23:07:49.374Z,2.70
2019-05-30T23:12:44.267Z,2.80
2019-05-30T23:17:38.996Z,3.10
2019-05-30T23:22:33.610Z,2.70
2019-05-30T23:27:28.186Z,3.00
2019-05-30T23:32:22.781Z,3.60
2019-05-30T23:37:17.385Z,4.00
2019-05-30T23:42:11.988Z,3.40
2019-05-30T23:47:06.575Z,3.40
2019-05-30T23:52:01.186Z,3.47
2019-05-30T23:56:56.509Z,3.13
